sensor_id;sensor_type;location;lat;lon;timestamp;pressure;altitude;pressure_sealevel;temperature;humidity
76052;BME280;64751;48.708;9.710;2023-08-06T14:32:45;97015.59;;;15.30;77.53
76052;BME280;64751;48.708;9.710;2023-08-06T14:35:12;97025.78;;;15.28;75.18
76052;BME280;64751;48.708;9.710;2023-08-06T14:37:40;97014.47;;;15.31;76.32
76052;BME280;64751;48.708;9.710;2023-08-06T14:40:08;97014.22;;;15.24;73.91
76052;BME280;64751;48.708;9.710;2023-08-06T14:42:36;97023.28;;;15.23;73.46
76052;BME280;64751;48.708;9.710;2023-08-06T14:45:04;97030.19;;;15.24;73.43
76052;BME280;64751;48.708;9.710;2023-08-06T14:47:32;97034.22;;;15.30;74.52
76052;BME280;64751;48.708;9.710;2023-08-06T14:50:01;97038.13;;;15.33;74.39
76052;BME280;64751;48.708;9.710;2023-08-06T14:52:29;97050.59;;;15.41;74.00
76052;BME280;64751;48.708;9.710;2023-08-06T14:54:57;97042.31;;;15.42;72.36
76052;BME280;64751;48.708;9.710;2023-08-06T14:57:25;97045.28;;;15.49;71.65
76052;BME280;64751;48.708;9.710;2023-08-06T14:59:54;97043.72;;;15.48;71.75
76052;BME280;64751;48.708;9.710;2023-08-06T15:02:22;97059.03;;;15.51;72.48
76052;BME280;64751;48.708;9.710;2023-08-06T15:04:49;97049.06;;;15.48;72.28
76052;BME280;64751;48.708;9.710;2023-08-06T15:07:18;97041.22;;;15.43;72.96
76052;BME280;64751;48.708;9.710;2023-08-06T15:09:46;97054.56;;;15.35;74.31
76052;BME280;64751;48.708;9.710;2023-08-06T15:12:13;97073.22;;;15.26;74.38
76052;BME280;64751;48.708;9.710;2023-08-06T15:14:41;97079.97;;;15.15;75.23
76052;BME280;64751;48.708;9.710;2023-08-06T15:17:08;97066.97;;;15.13;74.91
76052;BME280;64751;48.708;9.710;2023-08-06T15:19:36;97084.50;;;15.14;75.63
76052;BME280;64751;48.708;9.710;2023-08-06T15:22:03;97086.72;;;15.04;74.55
76052;BME280;64751;48.708;9.710;2023-08-06T15:24:32;97090.31;;;14.99;75.98
76052;BME280;64751;48.708;9.710;2023-08-06T15:27:02;97085.94;;;14.95;77.72
76052;BME280;64751;48.708;9.710;2023-08-06T15:29:30;97096.56;;;14.86;77.22
76052;BME280;64751;48.708;9.710;2023-08-06T15:31:58;97100.81;;;14.87;77.71
76052;BME280;64751;48.708;9.710;2023-08-06T15:34:25;97100.19;;;14.90;78.99
76052;BME280;64751;48.708;9.710;2023-08-06T15:36:53;97105.34;;;14.87;78.29
76052;BME280;64751;48.708;9.710;2023-08-06T15:39:20;97102.66;;;14.95;77.68
76052;BME280;64751;48.708;9.710;2023-08-06T15:41:49;97106.88;;;15.05;78.00
76052;BME280;64751;48.708;9.710;2023-08-06T15:44:17;97101.25;;;15.15;76.47
76052;BME280;64751;48.708;9.710;2023-08-06T15:46:44;97099.81;;;15.26;75.93
76052;BME280;64751;48.708;9.710;2023-08-06T15:49:12;97113.41;;;15.33;75.68
76052;BME280;64751;48.708;9.710;2023-08-06T15:51:40;97113.22;;;15.38;76.01
76052;BME280;64751;48.708;9.710;2023-08-06T15:54:08;97104.63;;;15.41;75.59
76052;BME280;64751;48.708;9.710;2023-08-06T15:56:35;97108.41;;;15.49;75.85
76052;BME280;64751;48.708;9.710;2023-08-06T15:59:22;97104.59;;;15.58;75.10
76052;BME280;64751;48.708;9.710;2023-08-06T16:01:51;97097.63;;;15.74;75.87
76052;BME280;64751;48.708;9.710;2023-08-06T16:04:18;97091.03;;;15.80;75.26
76052;BME280;64751;48.708;9.710;2023-08-06T16:06:46;97103.28;;;15.73;71.66
76052;BME280;64751;48.708;9.710;2023-08-06T16:09:13;97121.13;;;15.72;72.70
76052;BME280;64751;48.708;9.710;2023-08-06T16:11:41;97116.91;;;15.71;73.26
76052;BME280;64751;48.708;9.710;2023-08-06T16:14:08;97112.91;;;15.57;72.05
76052;BME280;64751;48.708;9.710;2023-08-06T16:16:37;97124.63;;;15.56;72.70
76052;BME280;64751;48.708;9.710;2023-08-06T16:19:05;97130.91;;;15.51;72.41
76052;BME280;64751;48.708;9.710;2023-08-06T16:21:33;97125.13;;;15.49;72.65
76052;BME280;64751;48.708;9.710;2023-08-06T16:24:01;97119.78;;;15.49;73.15
76052;BME280;64751;48.708;9.710;2023-08-06T16:26:30;97123.72;;;15.43;71.67
76052;BME280;64751;48.708;9.710;2023-08-06T16:28:57;97117.13;;;15.41;72.07
76052;BME280;64751;48.708;9.710;2023-08-06T16:31:24;97126.06;;;15.36;71.87
76052;BME280;64751;48.708;9.710;2023-08-06T16:33:53;97122.78;;;15.39;73.04
76052;BME280;64751;48.708;9.710;2023-08-06T16:36:21;97119.81;;;15.32;72.22
76052;BME280;64751;48.708;9.710;2023-08-06T16:38:48;97119.97;;;15.27;73.20
76052;BME280;64751;48.708;9.710;2023-08-06T16:41:16;97125.63;;;15.25;73.78
76052;BME280;64751;48.708;9.710;2023-08-06T16:43:44;97123.44;;;15.19;71.96
76052;BME280;64751;48.708;9.710;2023-08-06T16:46:12;97132.97;;;15.20;71.99
76052;BME280;64751;48.708;9.710;2023-08-06T16:48:39;97135.03;;;15.23;72.63
76052;BME280;64751;48.708;9.710;2023-08-06T16:51:09;97136.59;;;15.24;72.75
76052;BME280;64751;48.708;9.710;2023-08-06T16:53:39;97140.34;;;15.23;72.02
76052;BME280;64751;48.708;9.710;2023-08-06T16:56:07;97148.94;;;15.20;71.68
76052;BME280;64751;48.708;9.710;2023-08-06T16:58:35;97159.28;;;15.21;71.99
76052;BME280;64751;48.708;9.710;2023-08-06T17:01:02;97160.69;;;15.19;72.50
76052;BME280;64751;48.708;9.710;2023-08-06T17:03:31;97169.94;;;15.13;72.81
76052;BME280;64751;48.708;9.710;2023-08-06T17:05:59;97171.50;;;15.05;71.10
76052;BME280;64751;48.708;9.710;2023-08-06T17:08:29;97173.06;;;14.98;70.43
76052;BME280;64751;48.708;9.710;2023-08-06T17:11:00;97168.19;;;14.91;70.66
76052;BME280;64751;48.708;9.710;2023-08-06T17:13:29;97188.41;;;14.92;71.14
76052;BME280;64751;48.708;9.710;2023-08-06T17:15:57;97193.53;;;14.89;71.42
76052;BME280;64751;48.708;9.710;2023-08-06T17:18:24;97194.78;;;14.91;72.21
76052;BME280;64751;48.708;9.710;2023-08-06T17:20:52;97190.13;;;14.88;72.22
76052;BME280;64751;48.708;9.710;2023-08-06T17:23:20;97194.19;;;14.86;72.90
76052;BME280;64751;48.708;9.710;2023-08-06T17:25:49;97208.22;;;14.78;73.32
76052;BME280;64751;48.708;9.710;2023-08-06T17:28:16;97217.59;;;14.75;75.56
76052;BME280;64751;48.708;9.710;2023-08-06T17:30:44;97223.09;;;14.70;74.88
76052;BME280;64751;48.708;9.710;2023-08-06T17:33:12;97233.22;;;14.60;75.95
76052;BME280;64751;48.708;9.710;2023-08-06T17:35:40;97224.44;;;14.50;76.44
76052;BME280;64751;48.708;9.710;2023-08-06T17:38:08;97236.31;;;14.44;77.49
76052;BME280;64751;48.708;9.710;2023-08-06T17:40:36;97237.41;;;14.43;79.34
76052;BME280;64751;48.708;9.710;2023-08-06T17:43:05;97229.69;;;14.33;79.01
76052;BME280;64751;48.708;9.710;2023-08-06T17:45:32;97237.19;;;14.31;80.08
76052;BME280;64751;48.708;9.710;2023-08-06T17:48:00;97232.31;;;14.25;80.48
76052;BME280;64751;48.708;9.710;2023-08-06T17:50:27;97235.28;;;14.23;81.04
76052;BME280;64751;48.708;9.710;2023-08-06T17:52:55;97233.09;;;14.25;81.44
76052;BME280;64751;48.708;9.710;2023-08-06T17:55:22;97240.75;;;14.27;81.08
76052;BME280;64751;48.708;9.710;2023-08-06T17:57:52;97239.81;;;14.23;81.72
76052;BME280;64751;48.708;9.710;2023-08-06T18:00:21;97242.94;;;14.25;82.24
76052;BME280;64751;48.708;9.710;2023-08-06T18:02:48;97246.06;;;14.27;81.56
76052;BME280;64751;48.708;9.710;2023-08-06T18:05:16;97250.91;;;14.25;81.43
76052;BME280;64751;48.708;9.710;2023-08-06T18:07:44;97253.38;;;14.21;81.31
76052;BME280;64751;48.708;9.710;2023-08-06T18:10:12;97250.72;;;14.21;80.41
76052;BME280;64751;48.708;9.710;2023-08-06T18:12:40;97258.69;;;14.21;80.95
76052;BME280;64751;48.708;9.710;2023-08-06T18:15:09;97256.03;;;14.21;80.54
76052;BME280;64751;48.708;9.710;2023-08-06T18:17:40;97261.44;;;14.08;80.33
76052;BME280;64751;48.708;9.710;2023-08-06T18:20:08;97271.09;;;14.04;79.44
76052;BME280;64751;48.708;9.710;2023-08-06T18:22:36;97265.50;;;14.05;81.06
76052;BME280;64751;48.708;9.710;2023-08-06T18:25:05;97263.44;;;14.02;81.34
76052;BME280;64751;48.708;9.710;2023-08-06T18:27:33;97263.44;;;14.02;81.13
76052;BME280;64751;48.708;9.710;2023-08-06T18:30:01;97263.91;;;14.04;80.91
76052;BME280;64751;48.708;9.710;2023-08-06T18:32:29;97269.22;;;14.04;80.59
76052;BME280;64751;48.708;9.710;2023-08-06T18:34:57;97268.44;;;14.04;81.11
76052;BME280;64751;48.708;9.710;2023-08-06T18:37:25;97272.38;;;14.06;80.97
76052;BME280;64751;48.708;9.710;2023-08-06T18:39:53;97273.47;;;14.05;80.26
76052;BME280;64751;48.708;9.710;2023-08-06T18:42:27;97264.84;;;14.00;80.82
76052;BME280;64751;48.708;9.710;2023-08-06T18:44:55;97273.91;;;13.99;80.80
76052;BME280;64751;48.708;9.710;2023-08-06T18:47:24;97276.56;;;13.99;80.01
76052;BME280;64751;48.708;9.710;2023-08-06T18:49:51;97280.59;;;13.96;80.51
76052;BME280;64751;48.708;9.710;2023-08-06T18:52:20;97278.41;;;13.98;80.57
76052;BME280;64751;48.708;9.710;2023-08-06T18:54:48;97283.06;;;13.93;80.46
76052;BME280;64751;48.708;9.710;2023-08-06T18:57:15;97282.47;;;13.96;80.28
76052;BME280;64751;48.708;9.710;2023-08-06T18:59:45;97290.75;;;13.94;81.17
76052;BME280;64751;48.708;9.710;2023-08-06T19:02:12;97288.38;;;13.93;81.01
76052;BME280;64751;48.708;9.710;2023-08-06T19:04:40;97283.50;;;13.86;81.19
76052;BME280;64751;48.708;9.710;2023-08-06T19:07:07;97295.06;;;13.90;81.19
76052;BME280;64751;48.708;9.710;2023-08-06T19:09:36;97299.78;;;13.93;81.85
76052;BME280;64751;48.708;9.710;2023-08-06T19:12:04;97303.03;;;13.90;80.91
76052;BME280;64751;48.708;9.710;2023-08-06T19:14:32;97311.00;;;13.90;81.30
76052;BME280;64751;48.708;9.710;2023-08-06T19:17:00;97312.88;;;13.90;81.78
76052;BME280;64751;48.708;9.710;2023-08-06T19:19:29;97308.16;;;13.87;82.04
76052;BME280;64751;48.708;9.710;2023-08-06T19:21:57;97309.56;;;13.84;82.53
76052;BME280;64751;48.708;9.710;2023-08-06T19:24:24;97303.78;;;13.82;82.32
76052;BME280;64751;48.708;9.710;2023-08-06T19:26:53;97312.16;;;13.75;82.88
76052;BME280;64751;48.708;9.710;2023-08-06T19:29:21;97309.03;;;13.73;83.18
76052;BME280;64751;48.708;9.710;2023-08-06T19:31:49;97309.81;;;13.74;83.72
76052;BME280;64751;48.708;9.710;2023-08-06T19:34:16;97312.47;;;13.74;83.74
76052;BME280;64751;48.708;9.710;2023-08-06T19:36:44;97313.53;;;13.73;84.44
76052;BME280;64751;48.708;9.710;2023-08-06T19:39:11;97309.31;;;13.72;83.72
76052;BME280;64751;48.708;9.710;2023-08-06T19:41:39;97306.97;;;13.70;84.13
76052;BME280;64751;48.708;9.710;2023-08-06T19:44:08;97307.75;;;13.71;84.05
76052;BME280;64751;48.708;9.710;2023-08-06T19:46:36;97306.16;;;13.70;83.73
76052;BME280;64751;48.708;9.710;2023-08-06T19:49:04;97305.22;;;13.66;83.70
76052;BME280;64751;48.708;9.710;2023-08-06T19:51:32;97296.78;;;13.64;83.37
76052;BME280;64751;48.708;9.710;2023-08-06T19:54:03;97300.50;;;13.63;83.19
76052;BME280;64751;48.708;9.710;2023-08-06T19:56:31;97303.66;;;13.65;83.29
76052;BME280;64751;48.708;9.710;2023-08-06T19:58:58;97285.69;;;13.62;83.60
76052;BME280;64751;48.708;9.710;2023-08-06T20:01:27;97295.69;;;13.65;83.43
76052;BME280;64751;48.708;9.710;2023-08-06T20:03:56;97296.34;;;13.70;83.44
76052;BME280;64751;48.708;9.710;2023-08-06T20:06:23;97296.34;;;13.70;83.26
76052;BME280;64751;48.708;9.710;2023-08-06T20:08:56;97291.94;;;13.66;83.10
76052;BME280;64751;48.708;9.710;2023-08-06T20:11:23;97293.03;;;13.65;82.94
76052;BME280;64751;48.708;9.710;2023-08-06T20:13:51;97291.78;;;13.62;82.74
76052;BME280;64751;48.708;9.710;2023-08-06T20:16:19;97287.53;;;13.61;82.58
76052;BME280;64751;48.708;9.710;2023-08-06T20:18:48;97286.75;;;13.61;82.45
76052;BME280;64751;48.708;9.710;2023-08-06T20:21:15;97286.09;;;13.55;82.14
76052;BME280;64751;48.708;9.710;2023-08-06T20:23:43;97290.03;;;13.58;81.97
76052;BME280;64751;48.708;9.710;2023-08-06T20:26:11;97288.44;;;13.57;81.98
76052;BME280;64751;48.708;9.710;2023-08-06T20:28:39;97291.81;;;13.49;81.25
76052;BME280;64751;48.708;9.710;2023-08-06T20:31:07;97297.72;;;13.46;81.97
76052;BME280;64751;48.708;9.710;2023-08-06T20:33:35;97296.66;;;13.47;82.01
76052;BME280;64751;48.708;9.710;2023-08-06T20:36:04;97290.34;;;13.43;81.06
76052;BME280;64751;48.708;9.710;2023-08-06T20:38:32;97290.72;;;13.50;81.70
76052;BME280;64751;48.708;9.710;2023-08-06T20:40:59;97286.81;;;13.47;81.61
76052;BME280;64751;48.708;9.710;2023-08-06T20:43:27;97291.22;;;13.52;81.44
76052;BME280;64751;48.708;9.710;2023-08-06T20:45:55;97292.47;;;13.54;80.95
76052;BME280;64751;48.708;9.710;2023-08-06T20:48:24;97292.19;;;13.56;80.75
76052;BME280;64751;48.708;9.710;2023-08-06T20:50:52;97299.16;;;13.52;79.98
76052;BME280;64751;48.708;9.710;2023-08-06T20:53:21;97299.78;;;13.49;79.63
76052;BME280;64751;48.708;9.710;2023-08-06T20:55:57;97299.09;;;13.43;80.58
76052;BME280;64751;48.708;9.710;2023-08-06T20:58:24;97310.50;;;13.44;81.06
76052;BME280;64751;48.708;9.710;2023-08-06T21:00:53;97306.78;;;13.45;81.35
76052;BME280;64751;48.708;9.710;2023-08-06T21:03:21;97318.47;;;13.44;80.99
76052;BME280;64751;48.708;9.710;2023-08-06T21:05:57;97318.56;;;13.39;81.61
76052;BME280;64751;48.708;9.710;2023-08-06T21:08:27;97320.34;;;13.30;81.61
76052;BME280;64751;48.708;9.710;2023-08-06T21:10:55;97319.69;;;13.24;81.80
76052;BME280;64751;48.708;9.710;2023-08-06T21:13:25;97311.91;;;13.28;83.24
76052;BME280;64751;48.708;9.710;2023-08-06T21:15:57;97331.38;;;13.23;82.88
76052;BME280;64751;48.708;9.710;2023-08-06T21:18:27;97336.50;;;13.20;84.03
76052;BME280;64751;48.708;9.710;2023-08-06T21:20:55;97343.38;;;13.21;83.59
76052;BME280;64751;48.708;9.710;2023-08-06T21:23:24;97345.69;;;13.49;99.10
76052;BME280;64751;48.708;9.710;2023-08-06T21:25:56;97347.16;;;13.77;100.00
76052;BME280;64751;48.708;9.710;2023-08-06T21:28:24;97336.72;;;14.03;100.00
76052;BME280;64751;48.708;9.710;2023-08-06T21:30:55;97347.06;;;14.13;100.00
76052;BME280;64751;48.708;9.710;2023-08-06T21:33:23;97343.94;;;14.11;100.00
76052;BME280;64751;48.708;9.710;2023-08-06T21:35:51;97335.41;;;14.23;100.00
76052;BME280;64751;48.708;9.710;2023-08-06T21:38:19;97346.13;;;14.09;95.34
76052;BME280;64751;48.708;9.710;2023-08-06T21:40:47;97340.41;;;14.24;100.00
76052;BME280;64751;48.708;9.710;2023-08-06T21:43:15;97345.44;;;14.48;100.00
76052;BME280;64751;48.708;9.710;2023-08-06T21:45:43;97343.56;;;14.26;100.00
76052;BME280;64751;48.708;9.710;2023-08-06T21:48:10;97356.00;;;14.17;100.00
76052;BME280;64751;48.708;9.710;2023-08-06T21:50:38;97346.53;;;14.03;99.19
76052;BME280;64751;48.708;9.710;2023-08-06T21:53:05;97352.13;;;14.01;100.00
76052;BME280;64751;48.708;9.710;2023-08-06T21:55:33;97354.94;;;14.18;100.00
76052;BME280;64751;48.708;9.710;2023-08-06T21:58:00;97345.63;;;14.07;100.00
